sensor_id;sensor_type;location;lat;lon;timestamp;P1;durP1;ratioP1;P2;durP2;ratioP2
8538;SDS011;4307;53.868;11.680;2023-06-22T00:01:09;6.57;;;5.63;;
8538;SDS011;4307;53.868;11.680;2023-06-22T00:03:36;7.37;;;5.43;;
8538;SDS011;4307;53.868;11.680;2023-06-22T00:06:02;6.30;;;5.70;;
8538;SDS011;4307;53.868;11.680;2023-06-22T00:08:29;6.20;;;5.60;;
8538;SDS011;4307;53.868;11.680;2023-06-22T00:10:56;6.23;;;5.63;;
8538;SDS011;4307;53.868;11.680;2023-06-22T00:13:22;6.30;;;5.70;;
8538;SDS011;4307;53.868;11.680;2023-06-22T00:15:50;6.93;;;6.27;;
8538;SDS011;4307;53.868;11.680;2023-06-22T00:18:17;6.43;;;5.83;;
8538;SDS011;4307;53.868;11.680;2023-06-22T00:20:44;6.03;;;5.47;;
8538;SDS011;4307;53.868;11.680;2023-06-22T00:23:10;6.13;;;5.60;;
8538;SDS011;4307;53.868;11.680;2023-06-22T00:25:40;8.03;;;5.87;;
8538;SDS011;4307;53.868;11.680;2023-06-22T00:28:07;6.10;;;5.60;;
8538;SDS011;4307;53.868;11.680;2023-06-22T00:30:34;5.90;;;5.40;;
8538;SDS011;4307;53.868;11.680;2023-06-22T00:33:02;5.73;;;5.17;;
8538;SDS011;4307;53.868;11.680;2023-06-22T00:35:35;6.03;;;5.43;;
8538;SDS011;4307;53.868;11.680;2023-06-22T00:38:02;7.50;;;5.67;;
8538;SDS011;4307;53.868;11.680;2023-06-22T00:40:29;5.27;;;4.77;;
8538;SDS011;4307;53.868;11.680;2023-06-22T00:42:58;5.63;;;5.10;;
8538;SDS011;4307;53.868;11.680;2023-06-22T00:45:25;5.60;;;4.73;;
8538;SDS011;4307;53.868;11.680;2023-06-22T00:47:52;4.87;;;4.43;;
8538;SDS011;4307;53.868;11.680;2023-06-22T00:50:22;5.00;;;4.57;;
8538;SDS011;4307;53.868;11.680;2023-06-22T00:52:51;5.60;;;4.90;;
8538;SDS011;4307;53.868;11.680;2023-06-22T00:55:18;4.60;;;4.20;;
8538;SDS011;4307;53.868;11.680;2023-06-22T00:57:46;4.87;;;4.43;;
8538;SDS011;4307;53.868;11.680;2023-06-22T01:00:14;4.60;;;4.20;;
8538;SDS011;4307;53.868;11.680;2023-06-22T01:02:44;5.00;;;4.60;;
8538;SDS011;4307;53.868;11.680;2023-06-22T01:05:11;5.33;;;4.83;;
8538;SDS011;4307;53.868;11.680;2023-06-22T01:07:41;5.87;;;5.27;;
8538;SDS011;4307;53.868;11.680;2023-06-22T01:10:18;6.27;;;5.27;;
8538;SDS011;4307;53.868;11.680;2023-06-22T01:12:51;6.80;;;4.90;;
8538;SDS011;4307;53.868;11.680;2023-06-22T01:15:21;6.17;;;5.57;;
8538;SDS011;4307;53.868;11.680;2023-06-22T01:17:51;6.10;;;5.60;;
8538;SDS011;4307;53.868;11.680;2023-06-22T01:20:19;5.43;;;4.93;;
8538;SDS011;4307;53.868;11.680;2023-06-22T01:25:42;5.77;;;4.77;;
8538;SDS011;4307;53.868;11.680;2023-06-22T01:28:17;5.37;;;4.87;;
8538;SDS011;4307;53.868;11.680;2023-06-22T01:30:51;5.37;;;4.97;;
8538;SDS011;4307;53.868;11.680;2023-06-22T01:33:28;6.60;;;5.60;;
8538;SDS011;4307;53.868;11.680;2023-06-22T01:35:56;7.23;;;5.17;;
8538;SDS011;4307;53.868;11.680;2023-06-22T01:38:23;6.20;;;5.60;;
8538;SDS011;4307;53.868;11.680;2023-06-22T01:40:51;5.87;;;5.30;;
8538;SDS011;4307;53.868;11.680;2023-06-22T01:43:19;6.83;;;5.17;;
8538;SDS011;4307;53.868;11.680;2023-06-22T01:45:48;6.07;;;5.47;;
8538;SDS011;4307;53.868;11.680;2023-06-22T01:48:16;6.57;;;5.90;;
8538;SDS011;4307;53.868;11.680;2023-06-22T01:50:43;5.27;;;4.77;;
8538;SDS011;4307;53.868;11.680;2023-06-22T01:53:10;5.80;;;5.30;;
8538;SDS011;4307;53.868;11.680;2023-06-22T01:55:37;6.60;;;5.90;;
8538;SDS011;4307;53.868;11.680;2023-06-22T01:58:04;6.20;;;5.67;;
8538;SDS011;4307;53.868;11.680;2023-06-22T02:00:31;6.20;;;5.57;;
8538;SDS011;4307;53.868;11.680;2023-06-22T02:03:04;5.27;;;4.77;;
8538;SDS011;4307;53.868;11.680;2023-06-22T02:05:36;6.13;;;4.70;;
8538;SDS011;4307;53.868;11.680;2023-06-22T02:08:08;5.63;;;5.13;;
8538;SDS011;4307;53.868;11.680;2023-06-22T02:10:37;6.27;;;4.60;;
8538;SDS011;4307;53.868;11.680;2023-06-22T02:13:07;5.60;;;5.10;;
8538;SDS011;4307;53.868;11.680;2023-06-22T02:15:35;5.07;;;4.57;;
8538;SDS011;4307;53.868;11.680;2023-06-22T02:18:03;6.03;;;5.17;;
8538;SDS011;4307;53.868;11.680;2023-06-22T02:20:30;5.60;;;5.03;;
8538;SDS011;4307;53.868;11.680;2023-06-22T02:22:58;6.00;;;5.47;;
8538;SDS011;4307;53.868;11.680;2023-06-22T02:25:25;4.93;;;4.43;;
8538;SDS011;4307;53.868;11.680;2023-06-22T02:27:52;5.30;;;4.80;;
8538;SDS011;4307;53.868;11.680;2023-06-22T02:30:18;5.80;;;5.30;;
8538;SDS011;4307;53.868;11.680;2023-06-22T02:32:45;8.60;;;5.67;;
8538;SDS011;4307;53.868;11.680;2023-06-22T02:35:12;5.20;;;4.60;;
8538;SDS011;4307;53.868;11.680;2023-06-22T02:37:38;6.97;;;5.10;;
8538;SDS011;4307;53.868;11.680;2023-06-22T02:40:08;6.43;;;5.30;;
8538;SDS011;4307;53.868;11.680;2023-06-22T02:42:35;7.87;;;5.23;;
8538;SDS011;4307;53.868;11.680;2023-06-22T02:45:02;5.53;;;5.07;;
8538;SDS011;4307;53.868;11.680;2023-06-22T02:47:29;5.90;;;5.37;;
8538;SDS011;4307;53.868;11.680;2023-06-22T02:49:56;6.50;;;5.43;;
8538;SDS011;4307;53.868;11.680;2023-06-22T02:52:23;6.10;;;5.50;;
8538;SDS011;4307;53.868;11.680;2023-06-22T02:54:50;7.90;;;6.03;;
8538;SDS011;4307;53.868;11.680;2023-06-22T02:57:18;5.97;;;5.37;;
8538;SDS011;4307;53.868;11.680;2023-06-22T02:59:45;7.80;;;5.47;;
8538;SDS011;4307;53.868;11.680;2023-06-22T03:02:11;11.20;;;5.23;;
8538;SDS011;4307;53.868;11.680;2023-06-22T03:04:38;6.60;;;5.57;;
8538;SDS011;4307;53.868;11.680;2023-06-22T03:07:05;6.10;;;5.43;;
8538;SDS011;4307;53.868;11.680;2023-06-22T03:09:31;7.93;;;5.03;;
8538;SDS011;4307;53.868;11.680;2023-06-22T03:11:58;6.23;;;5.40;;
8538;SDS011;4307;53.868;11.680;2023-06-22T03:14:26;9.67;;;6.03;;
8538;SDS011;4307;53.868;11.680;2023-06-22T03:16:53;5.87;;;5.33;;
8538;SDS011;4307;53.868;11.680;2023-06-22T03:19:20;6.87;;;5.67;;
8538;SDS011;4307;53.868;11.680;2023-06-22T03:21:47;9.47;;;6.37;;
8538;SDS011;4307;53.868;11.680;2023-06-22T03:24:13;8.43;;;6.27;;
8538;SDS011;4307;53.868;11.680;2023-06-22T03:26:40;6.70;;;6.00;;
8538;SDS011;4307;53.868;11.680;2023-06-22T03:29:06;5.80;;;5.20;;
8538;SDS011;4307;53.868;11.680;2023-06-22T03:31:34;7.20;;;6.07;;
8538;SDS011;4307;53.868;11.680;2023-06-22T03:34:01;6.60;;;5.90;;
8538;SDS011;4307;53.868;11.680;2023-06-22T03:36:28;9.63;;;6.13;;
8538;SDS011;4307;53.868;11.680;2023-06-22T03:38:55;7.43;;;6.07;;
8538;SDS011;4307;53.868;11.680;2023-06-22T03:41:22;6.07;;;5.47;;
8538;SDS011;4307;53.868;11.680;2023-06-22T03:43:48;7.03;;;6.33;;
8538;SDS011;4307;53.868;11.680;2023-06-22T03:46:15;6.67;;;5.30;;
8538;SDS011;4307;53.868;11.680;2023-06-22T03:48:43;8.53;;;6.10;;
8538;SDS011;4307;53.868;11.680;2023-06-22T03:51:09;6.87;;;6.27;;
8538;SDS011;4307;53.868;11.680;2023-06-22T03:53:36;6.60;;;5.90;;
8538;SDS011;4307;53.868;11.680;2023-06-22T03:56:03;7.50;;;5.93;;
8538;SDS011;4307;53.868;11.680;2023-06-22T03:58:30;7.37;;;6.40;;
8538;SDS011;4307;53.868;11.680;2023-06-22T04:00:58;7.23;;;6.53;;
8538;SDS011;4307;53.868;11.680;2023-06-22T04:03:25;8.27;;;7.37;;
8538;SDS011;4307;53.868;11.680;2023-06-22T04:05:53;8.63;;;6.93;;
8538;SDS011;4307;53.868;11.680;2023-06-22T04:08:23;7.10;;;6.13;;
8538;SDS011;4307;53.868;11.680;2023-06-22T04:10:52;6.03;;;5.47;;
8538;SDS011;4307;53.868;11.680;2023-06-22T04:13:19;6.77;;;6.07;;
8538;SDS011;4307;53.868;11.680;2023-06-22T04:15:45;7.57;;;6.43;;
8538;SDS011;4307;53.868;11.680;2023-06-22T04:18:12;9.30;;;6.20;;
8538;SDS011;4307;53.868;11.680;2023-06-22T04:20:39;6.93;;;6.20;;
8538;SDS011;4307;53.868;11.680;2023-06-22T04:23:07;8.47;;;6.70;;
8538;SDS011;4307;53.868;11.680;2023-06-22T04:25:34;7.03;;;6.33;;
8538;SDS011;4307;53.868;11.680;2023-06-22T04:28:00;6.50;;;5.90;;
8538;SDS011;4307;53.868;11.680;2023-06-22T04:30:28;6.60;;;6.00;;
8538;SDS011;4307;53.868;11.680;2023-06-22T04:32:56;11.00;;;6.40;;
8538;SDS011;4307;53.868;11.680;2023-06-22T04:35:23;6.73;;;6.13;;
8538;SDS011;4307;53.868;11.680;2023-06-22T04:37:50;5.63;;;5.13;;
8538;SDS011;4307;53.868;11.680;2023-06-22T04:40:21;8.00;;;5.57;;
8538;SDS011;4307;53.868;11.680;2023-06-22T04:42:48;6.90;;;6.20;;
8538;SDS011;4307;53.868;11.680;2023-06-22T04:45:19;7.30;;;6.27;;
8538;SDS011;4307;53.868;11.680;2023-06-22T04:47:46;9.30;;;6.23;;
8538;SDS011;4307;53.868;11.680;2023-06-22T04:50:13;6.63;;;6.03;;
8538;SDS011;4307;53.868;11.680;2023-06-22T04:52:40;18.70;;;6.40;;
8538;SDS011;4307;53.868;11.680;2023-06-22T04:55:06;6.80;;;6.10;;
8538;SDS011;4307;53.868;11.680;2023-06-22T04:57:35;9.03;;;6.43;;
8538;SDS011;4307;53.868;11.680;2023-06-22T05:00:05;8.03;;;6.00;;
8538;SDS011;4307;53.868;11.680;2023-06-22T05:02:37;7.00;;;6.10;;
8538;SDS011;4307;53.868;11.680;2023-06-22T05:05:04;6.87;;;5.67;;
8538;SDS011;4307;53.868;11.680;2023-06-22T05:07:34;9.20;;;6.43;;
8538;SDS011;4307;53.868;11.680;2023-06-22T05:10:00;8.03;;;7.23;;
8538;SDS011;4307;53.868;11.680;2023-06-22T05:12:27;6.97;;;6.27;;
8538;SDS011;4307;53.868;11.680;2023-06-22T05:14:56;7.47;;;6.30;;
8538;SDS011;4307;53.868;11.680;2023-06-22T05:17:22;8.67;;;6.70;;
8538;SDS011;4307;53.868;11.680;2023-06-22T05:19:50;10.63;;;6.23;;
8538;SDS011;4307;53.868;11.680;2023-06-22T05:22:17;7.13;;;6.10;;
8538;SDS011;4307;53.868;11.680;2023-06-22T05:24:44;8.07;;;6.43;;
8538;SDS011;4307;53.868;11.680;2023-06-22T05:27:11;9.93;;;6.33;;
8538;SDS011;4307;53.868;11.680;2023-06-22T05:29:38;6.73;;;6.10;;
8538;SDS011;4307;53.868;11.680;2023-06-22T05:32:07;16.47;;;7.30;;
8538;SDS011;4307;53.868;11.680;2023-06-22T05:34:34;13.97;;;7.50;;
8538;SDS011;4307;53.868;11.680;2023-06-22T05:37:01;11.43;;;6.70;;
8538;SDS011;4307;53.868;11.680;2023-06-22T05:39:28;7.43;;;6.73;;
8538;SDS011;4307;53.868;11.680;2023-06-22T05:41:55;8.90;;;7.17;;
8538;SDS011;4307;53.868;11.680;2023-06-22T05:44:21;10.43;;;8.53;;
8538;SDS011;4307;53.868;11.680;2023-06-22T05:46:48;8.70;;;7.87;;
8538;SDS011;4307;53.868;11.680;2023-06-22T05:49:16;10.30;;;7.87;;
8538;SDS011;4307;53.868;11.680;2023-06-22T05:51:47;7.90;;;6.93;;
8538;SDS011;4307;53.868;11.680;2023-06-22T05:54:15;9.57;;;6.80;;
8538;SDS011;4307;53.868;11.680;2023-06-22T05:56:43;7.10;;;6.47;;
8538;SDS011;4307;53.868;11.680;2023-06-22T05:59:09;6.83;;;6.23;;
8538;SDS011;4307;53.868;11.680;2023-06-22T06:01:37;6.80;;;6.07;;
8538;SDS011;4307;53.868;11.680;2023-06-22T06:04:05;6.57;;;5.40;;
8538;SDS011;4307;53.868;11.680;2023-06-22T06:06:34;7.77;;;5.10;;
8538;SDS011;4307;53.868;11.680;2023-06-22T06:09:02;7.10;;;5.23;;
8538;SDS011;4307;53.868;11.680;2023-06-22T06:11:28;6.10;;;5.50;;
8538;SDS011;4307;53.868;11.680;2023-06-22T06:13:55;8.60;;;6.10;;
8538;SDS011;4307;53.868;11.680;2023-06-22T06:16:22;6.33;;;5.37;;
8538;SDS011;4307;53.868;11.680;2023-06-22T06:18:49;8.00;;;5.90;;
8538;SDS011;4307;53.868;11.680;2023-06-22T06:21:15;10.67;;;5.07;;
8538;SDS011;4307;53.868;11.680;2023-06-22T06:23:44;5.10;;;4.60;;
8538;SDS011;4307;53.868;11.680;2023-06-22T06:26:12;9.23;;;5.43;;
8538;SDS011;4307;53.868;11.680;2023-06-22T06:28:41;7.93;;;5.10;;
8538;SDS011;4307;53.868;11.680;2023-06-22T06:31:08;8.77;;;5.47;;
8538;SDS011;4307;53.868;11.680;2023-06-22T06:33:37;6.80;;;4.23;;
8538;SDS011;4307;53.868;11.680;2023-06-22T06:36:04;8.33;;;4.87;;
8538;SDS011;4307;53.868;11.680;2023-06-22T06:38:33;5.00;;;4.50;;
8538;SDS011;4307;53.868;11.680;2023-06-22T06:41:01;9.73;;;5.17;;
8538;SDS011;4307;53.868;11.680;2023-06-22T06:43:28;7.53;;;5.13;;
8538;SDS011;4307;53.868;11.680;2023-06-22T06:45:55;8.00;;;4.43;;
8538;SDS011;4307;53.868;11.680;2023-06-22T06:48:21;6.63;;;4.00;;
8538;SDS011;4307;53.868;11.680;2023-06-22T06:50:48;3.90;;;3.60;;
8538;SDS011;4307;53.868;11.680;2023-06-22T06:53:15;6.90;;;3.90;;
8538;SDS011;4307;53.868;11.680;2023-06-22T06:55:41;4.57;;;3.50;;
8538;SDS011;4307;53.868;11.680;2023-06-22T06:58:11;7.47;;;3.63;;
8538;SDS011;4307;53.868;11.680;2023-06-22T07:00:38;5.00;;;3.70;;
8538;SDS011;4307;53.868;11.680;2023-06-22T07:03:05;7.33;;;4.03;;
8538;SDS011;4307;53.868;11.680;2023-06-22T07:05:32;3.93;;;3.50;;
8538;SDS011;4307;53.868;11.680;2023-06-22T07:07:59;5.80;;;4.20;;
8538;SDS011;4307;53.868;11.680;2023-06-22T07:10:26;4.60;;;3.30;;
8538;SDS011;4307;53.868;11.680;2023-06-22T07:12:54;4.00;;;3.60;;
8538;SDS011;4307;53.868;11.680;2023-06-22T07:15:23;3.40;;;3.10;;
8538;SDS011;4307;53.868;11.680;2023-06-22T07:17:50;3.67;;;3.20;;
8538;SDS011;4307;53.868;11.680;2023-06-22T07:20:16;3.80;;;3.50;;
8538;SDS011;4307;53.868;11.680;2023-06-22T07:22:44;3.73;;;3.20;;
8538;SDS011;4307;53.868;11.680;2023-06-22T07:25:11;3.72;;;3.40;;
8538;SDS011;4307;53.868;11.680;2023-06-22T07:27:43;3.50;;;3.20;;
8538;SDS011;4307;53.868;11.680;2023-06-22T07:30:12;3.37;;;3.17;;
8538;SDS011;4307;53.868;11.680;2023-06-22T07:32:40;3.47;;;2.93;;
8538;SDS011;4307;53.868;11.680;2023-06-22T07:35:07;3.45;;;3.15;;
8538;SDS011;4307;53.868;11.680;2023-06-22T07:37:34;3.25;;;2.95;;
8538;SDS011;4307;53.868;11.680;2023-06-22T07:40:01;2.95;;;2.70;;
8538;SDS011;4307;53.868;11.680;2023-06-22T07:42:31;4.78;;;2.95;;
8538;SDS011;4307;53.868;11.680;2023-06-22T07:44:58;3.28;;;2.97;;
8538;SDS011;4307;53.868;11.680;2023-06-22T07:47:25;3.17;;;2.55;;
8538;SDS011;4307;53.868;11.680;2023-06-22T07:49:54;3.20;;;3.00;;
8538;SDS011;4307;53.868;11.680;2023-06-22T07:52:22;3.55;;;3.15;;
8538;SDS011;4307;53.868;11.680;2023-06-22T07:54:50;3.65;;;3.30;;
8538;SDS011;4307;53.868;11.680;2023-06-22T07:57:17;3.90;;;2.70;;
8538;SDS011;4307;53.868;11.680;2023-06-22T07:59:43;3.17;;;2.97;;
8538;SDS011;4307;53.868;11.680;2023-06-22T08:02:10;3.00;;;2.70;;
8538;SDS011;4307;53.868;11.680;2023-06-22T08:04:37;3.10;;;2.80;;
8538;SDS011;4307;53.868;11.680;2023-06-22T08:07:05;3.20;;;2.80;;
8538;SDS011;4307;53.868;11.680;2023-06-22T08:09:32;5.33;;;3.30;;
8538;SDS011;4307;53.868;11.680;2023-06-22T08:11:59;4.03;;;2.93;;
8538;SDS011;4307;53.868;11.680;2023-06-22T08:14:27;3.00;;;2.70;;
8538;SDS011;4307;53.868;11.680;2023-06-22T08:16:56;3.27;;;3.00;;
8538;SDS011;4307;53.868;11.680;2023-06-22T08:19:24;3.80;;;3.30;;
8538;SDS011;4307;53.868;11.680;2023-06-22T08:21:52;3.10;;;2.90;;
8538;SDS011;4307;53.868;11.680;2023-06-22T08:24:20;5.07;;;3.17;;
8538;SDS011;4307;53.868;11.680;2023-06-22T08:26:47;3.47;;;2.83;;
8538;SDS011;4307;53.868;11.680;2023-06-22T08:29:18;3.73;;;2.67;;
8538;SDS011;4307;53.868;11.680;2023-06-22T08:31:45;4.87;;;3.37;;
8538;SDS011;4307;53.868;11.680;2023-06-22T08:34:13;4.47;;;2.87;;
8538;SDS011;4307;53.868;11.680;2023-06-22T08:36:40;4.47;;;3.00;;
8538;SDS011;4307;53.868;11.680;2023-06-22T08:39:10;3.77;;;3.23;;
8538;SDS011;4307;53.868;11.680;2023-06-22T08:41:38;3.07;;;2.80;;
8538;SDS011;4307;53.868;11.680;2023-06-22T08:44:05;3.33;;;3.07;;
8538;SDS011;4307;53.868;11.680;2023-06-22T08:46:32;3.17;;;2.77;;
8538;SDS011;4307;53.868;11.680;2023-06-22T08:48:59;3.13;;;2.83;;
8538;SDS011;4307;53.868;11.680;2023-06-22T08:51:27;3.23;;;2.90;;
8538;SDS011;4307;53.868;11.680;2023-06-22T08:53:55;3.30;;;3.00;;
8538;SDS011;4307;53.868;11.680;2023-06-22T08:56:21;3.83;;;3.13;;
8538;SDS011;4307;53.868;11.680;2023-06-22T08:58:50;3.13;;;2.83;;
8538;SDS011;4307;53.868;11.680;2023-06-22T09:01:18;3.85;;;2.80;;
8538;SDS011;4307;53.868;11.680;2023-06-22T09:03:45;2.95;;;2.67;;
8538;SDS011;4307;53.868;11.680;2023-06-22T09:06:19;3.92;;;2.70;;
8538;SDS011;4307;53.868;11.680;2023-06-22T09:08:45;2.55;;;2.35;;
8538;SDS011;4307;53.868;11.680;2023-06-22T09:11:13;3.70;;;3.10;;
8538;SDS011;4307;53.868;11.680;2023-06-22T09:13:40;3.40;;;2.78;;
8538;SDS011;4307;53.868;11.680;2023-06-22T09:16:09;3.00;;;2.58;;
8538;SDS011;4307;53.868;11.680;2023-06-22T09:18:37;3.63;;;2.50;;
8538;SDS011;4307;53.868;11.680;2023-06-22T09:21:04;2.92;;;2.63;;
8538;SDS011;4307;53.868;11.680;2023-06-22T09:23:32;2.53;;;2.35;;
8538;SDS011;4307;53.868;11.680;2023-06-22T09:25:59;3.03;;;2.72;;
8538;SDS011;4307;53.868;11.680;2023-06-22T09:28:26;2.90;;;2.70;;
8538;SDS011;4307;53.868;11.680;2023-06-22T09:30:54;3.15;;;2.83;;
8538;SDS011;4307;53.868;11.680;2023-06-22T09:33:24;3.33;;;2.90;;
8538;SDS011;4307;53.868;11.680;2023-06-22T09:35:52;3.03;;;2.72;;
8538;SDS011;4307;53.868;11.680;2023-06-22T09:38:19;3.50;;;3.10;;
8538;SDS011;4307;53.868;11.680;2023-06-22T09:40:46;4.20;;;3.10;;
8538;SDS011;4307;53.868;11.680;2023-06-22T09:43:14;3.10;;;2.85;;
8538;SDS011;4307;53.868;11.680;2023-06-22T09:45:41;3.90;;;3.03;;
8538;SDS011;4307;53.868;11.680;2023-06-22T09:48:08;4.45;;;2.90;;
8538;SDS011;4307;53.868;11.680;2023-06-22T09:50:37;3.20;;;3.00;;
8538;SDS011;4307;53.868;11.680;2023-06-22T09:53:05;2.93;;;2.73;;
8538;SDS011;4307;53.868;11.680;2023-06-22T09:55:33;3.30;;;2.80;;
8538;SDS011;4307;53.868;11.680;2023-06-22T09:58:00;3.05;;;2.85;;
8538;SDS011;4307;53.868;11.680;2023-06-22T10:00:28;5.25;;;3.15;;
8538;SDS011;4307;53.868;11.680;2023-06-22T10:02:56;3.08;;;2.78;;
8538;SDS011;4307;53.868;11.680;2023-06-22T10:05:24;3.08;;;2.88;;
8538;SDS011;4307;53.868;11.680;2023-06-22T10:07:53;3.67;;;2.97;;
8538;SDS011;4307;53.868;11.680;2023-06-22T10:10:20;3.72;;;2.85;;
8538;SDS011;4307;53.868;11.680;2023-06-22T10:12:54;3.05;;;2.75;;
8538;SDS011;4307;53.868;11.680;2023-06-22T10:15:22;4.00;;;3.60;;
8538;SDS011;4307;53.868;11.680;2023-06-22T10:17:52;6.43;;;3.05;;
8538;SDS011;4307;53.868;11.680;2023-06-22T10:20:19;3.40;;;2.90;;
8538;SDS011;4307;53.868;11.680;2023-06-22T10:22:47;2.90;;;2.70;;
8538;SDS011;4307;53.868;11.680;2023-06-22T10:25:17;3.80;;;3.50;;
8538;SDS011;4307;53.868;11.680;2023-06-22T10:27:45;4.78;;;3.20;;
8538;SDS011;4307;53.868;11.680;2023-06-22T10:30:13;3.67;;;3.00;;
8538;SDS011;4307;53.868;11.680;2023-06-22T10:32:41;3.20;;;3.00;;
8538;SDS011;4307;53.868;11.680;2023-06-22T10:35:09;3.47;;;3.17;;
8538;SDS011;4307;53.868;11.680;2023-06-22T10:37:38;4.68;;;3.10;;
8538;SDS011;4307;53.868;11.680;2023-06-22T10:40:08;5.00;;;3.30;;
8538;SDS011;4307;53.868;11.680;2023-06-22T10:42:37;3.88;;;3.50;;
8538;SDS011;4307;53.868;11.680;2023-06-22T10:45:06;5.87;;;3.70;;
8538;SDS011;4307;53.868;11.680;2023-06-22T10:47:34;4.10;;;3.40;;
8538;SDS011;4307;53.868;11.680;2023-06-22T10:50:02;3.80;;;3.50;;
8538;SDS011;4307;53.868;11.680;2023-06-22T10:52:31;3.80;;;3.17;;
8538;SDS011;4307;53.868;11.680;2023-06-22T10:54:58;3.47;;;3.10;;
8538;SDS011;4307;53.868;11.680;2023-06-22T10:57:26;3.67;;;3.37;;
8538;SDS011;4307;53.868;11.680;2023-06-22T10:59:55;4.73;;;3.30;;
8538;SDS011;4307;53.868;11.680;2023-06-22T11:02:22;3.80;;;3.50;;
8538;SDS011;4307;53.868;11.680;2023-06-22T11:04:53;3.78;;;3.47;;
8538;SDS011;4307;53.868;11.680;2023-06-22T11:07:21;3.95;;;3.65;;
8538;SDS011;4307;53.868;11.680;2023-06-22T11:09:49;4.55;;;4.10;;
8538;SDS011;4307;53.868;11.680;2023-06-22T11:12:16;4.68;;;3.58;;
8538;SDS011;4307;53.868;11.680;2023-06-22T11:14:43;4.00;;;3.70;;
8538;SDS011;4307;53.868;11.680;2023-06-22T11:17:11;4.17;;;3.80;;
8538;SDS011;4307;53.868;11.680;2023-06-22T11:19:38;4.27;;;3.87;;
8538;SDS011;4307;53.868;11.680;2023-06-22T11:22:05;4.10;;;3.70;;
8538;SDS011;4307;53.868;11.680;2023-06-22T11:24:32;3.93;;;3.60;;
8538;SDS011;4307;53.868;11.680;2023-06-22T11:26:59;4.30;;;3.60;;
8538;SDS011;4307;53.868;11.680;2023-06-22T11:29:26;5.00;;;4.00;;
8538;SDS011;4307;53.868;11.680;2023-06-22T11:31:53;4.43;;;3.60;;
8538;SDS011;4307;53.868;11.680;2023-06-22T11:34:22;4.30;;;3.80;;
8538;SDS011;4307;53.868;11.680;2023-06-22T11:36:49;4.23;;;3.70;;
8538;SDS011;4307;53.868;11.680;2023-06-22T11:39:16;4.03;;;3.73;;
8538;SDS011;4307;53.868;11.680;2023-06-22T11:41:43;3.93;;;3.63;;
8538;SDS011;4307;53.868;11.680;2023-06-22T11:44:10;4.43;;;3.97;;
8538;SDS011;4307;53.868;11.680;2023-06-22T11:46:37;4.30;;;3.90;;
8538;SDS011;4307;53.868;11.680;2023-06-22T11:49:04;3.50;;;3.20;;
8538;SDS011;4307;53.868;11.680;2023-06-22T11:51:32;6.13;;;3.95;;
8538;SDS011;4307;53.868;11.680;2023-06-22T11:53:59;5.80;;;4.43;;
8538;SDS011;4307;53.868;11.680;2023-06-22T11:56:25;4.10;;;3.67;;
8538;SDS011;4307;53.868;11.680;2023-06-22T11:58:53;5.77;;;3.80;;
8538;SDS011;4307;53.868;11.680;2023-06-22T12:01:20;5.70;;;4.20;;
8538;SDS011;4307;53.868;11.680;2023-06-22T12:03:47;5.43;;;4.37;;
8538;SDS011;4307;53.868;11.680;2023-06-22T12:06:13;4.43;;;4.07;;
8538;SDS011;4307;53.868;11.680;2023-06-22T12:08:42;6.27;;;4.10;;
8538;SDS011;4307;53.868;11.680;2023-06-22T12:11:08;4.37;;;4.00;;
8538;SDS011;4307;53.868;11.680;2023-06-22T12:13:35;5.43;;;4.03;;
8538;SDS011;4307;53.868;11.680;2023-06-22T12:16:02;5.47;;;4.60;;
8538;SDS011;4307;53.868;11.680;2023-06-22T12:18:29;4.73;;;4.33;;
8538;SDS011;4307;53.868;11.680;2023-06-22T12:20:55;4.20;;;3.80;;
8538;SDS011;4307;53.868;11.680;2023-06-22T12:23:22;5.67;;;4.20;;
8538;SDS011;4307;53.868;11.680;2023-06-22T12:25:50;5.43;;;4.10;;
8538;SDS011;4307;53.868;11.680;2023-06-22T12:28:17;4.40;;;4.00;;
8538;SDS011;4307;53.868;11.680;2023-06-22T12:30:44;4.37;;;3.90;;
8538;SDS011;4307;53.868;11.680;2023-06-22T12:33:11;5.20;;;3.80;;
8538;SDS011;4307;53.868;11.680;2023-06-22T12:35:38;4.23;;;3.83;;
8538;SDS011;4307;53.868;11.680;2023-06-22T12:38:05;5.23;;;4.50;;
8538;SDS011;4307;53.868;11.680;2023-06-22T12:40:33;4.67;;;4.00;;
8538;SDS011;4307;53.868;11.680;2023-06-22T12:43:03;4.67;;;4.13;;
8538;SDS011;4307;53.868;11.680;2023-06-22T12:45:31;4.63;;;4.00;;
8538;SDS011;4307;53.868;11.680;2023-06-22T12:47:58;4.63;;;4.23;;
8538;SDS011;4307;53.868;11.680;2023-06-22T12:50:26;5.70;;;4.63;;
8538;SDS011;4307;53.868;11.680;2023-06-22T12:52:54;6.85;;;4.13;;
8538;SDS011;4307;53.868;11.680;2023-06-22T12:55:23;5.30;;;4.15;;
8538;SDS011;4307;53.868;11.680;2023-06-22T12:57:51;4.75;;;4.25;;
8538;SDS011;4307;53.868;11.680;2023-06-22T13:00:21;5.38;;;4.28;;
8538;SDS011;4307;53.868;11.680;2023-06-22T13:02:49;6.97;;;4.32;;
8538;SDS011;4307;53.868;11.680;2023-06-22T13:05:17;5.75;;;4.53;;
8538;SDS011;4307;53.868;11.680;2023-06-22T13:07:44;6.45;;;3.97;;
8538;SDS011;4307;53.868;11.680;2023-06-22T13:10:12;4.68;;;4.25;;
8538;SDS011;4307;53.868;11.680;2023-06-22T13:12:40;5.68;;;5.07;;
8538;SDS011;4307;53.868;11.680;2023-06-22T13:15:08;5.88;;;4.78;;
8538;SDS011;4307;53.868;11.680;2023-06-22T13:17:37;7.57;;;5.13;;
8538;SDS011;4307;53.868;11.680;2023-06-22T13:20:05;5.90;;;5.22;;
8538;SDS011;4307;53.868;11.680;2023-06-22T13:22:34;5.80;;;5.20;;
8538;SDS011;4307;53.868;11.680;2023-06-22T13:25:05;6.30;;;5.70;;
8538;SDS011;4307;53.868;11.680;2023-06-22T13:27:37;7.43;;;5.50;;
8538;SDS011;4307;53.868;11.680;2023-06-22T13:30:05;6.23;;;4.90;;
8538;SDS011;4307;53.868;11.680;2023-06-22T13:32:34;6.73;;;6.03;;
8538;SDS011;4307;53.868;11.680;2023-06-22T13:35:04;5.23;;;4.73;;
8538;SDS011;4307;53.868;11.680;2023-06-22T13:37:32;5.70;;;5.17;;
8538;SDS011;4307;53.868;11.680;2023-06-22T13:40:00;7.80;;;5.37;;
8538;SDS011;4307;53.868;11.680;2023-06-22T13:42:30;6.00;;;5.23;;
8538;SDS011;4307;53.868;11.680;2023-06-22T13:44:58;5.73;;;5.13;;
8538;SDS011;4307;53.868;11.680;2023-06-22T13:47:26;4.90;;;4.40;;
8538;SDS011;4307;53.868;11.680;2023-06-22T13:49:54;6.77;;;4.70;;
8538;SDS011;4307;53.868;11.680;2023-06-22T13:52:24;5.43;;;4.50;;
8538;SDS011;4307;53.868;11.680;2023-06-22T13:54:53;4.87;;;4.27;;
8538;SDS011;4307;53.868;11.680;2023-06-22T13:57:21;5.83;;;5.33;;
8538;SDS011;4307;53.868;11.680;2023-06-22T13:59:49;5.37;;;3.80;;
8538;SDS011;4307;53.868;11.680;2023-06-22T14:02:16;5.93;;;4.40;;
8538;SDS011;4307;53.868;11.680;2023-06-22T14:04:44;5.30;;;4.70;;
8538;SDS011;4307;53.868;11.680;2023-06-22T14:07:12;6.47;;;5.03;;
8538;SDS011;4307;53.868;11.680;2023-06-22T14:09:41;5.90;;;4.53;;
8538;SDS011;4307;53.868;11.680;2023-06-22T14:12:09;4.77;;;4.37;;
8538;SDS011;4307;53.868;11.680;2023-06-22T14:14:38;4.60;;;4.00;;
8538;SDS011;4307;53.868;11.680;2023-06-22T14:17:06;5.80;;;3.80;;
8538;SDS011;4307;53.868;11.680;2023-06-22T14:19:33;4.40;;;4.00;;
8538;SDS011;4307;53.868;11.680;2023-06-22T14:22:01;4.27;;;3.33;;
8538;SDS011;4307;53.868;11.680;2023-06-22T14:24:29;6.40;;;3.87;;
8538;SDS011;4307;53.868;11.680;2023-06-22T14:26:59;5.20;;;3.63;;
8538;SDS011;4307;53.868;11.680;2023-06-22T14:29:28;4.63;;;3.20;;
8538;SDS011;4307;53.868;11.680;2023-06-22T14:31:56;4.53;;;3.03;;
8538;SDS011;4307;53.868;11.680;2023-06-22T14:34:24;3.60;;;3.23;;
8538;SDS011;4307;53.868;11.680;2023-06-22T14:36:51;3.13;;;2.87;;
8538;SDS011;4307;53.868;11.680;2023-06-22T14:39:18;4.53;;;3.17;;
8538;SDS011;4307;53.868;11.680;2023-06-22T14:41:46;3.97;;;3.57;;
8538;SDS011;4307;53.868;11.680;2023-06-22T14:44:14;3.33;;;3.13;;
8538;SDS011;4307;53.868;11.680;2023-06-22T14:46:41;3.47;;;3.17;;
8538;SDS011;4307;53.868;11.680;2023-06-22T14:49:08;3.27;;;2.97;;
8538;SDS011;4307;53.868;11.680;2023-06-22T14:51:34;3.10;;;2.80;;
8538;SDS011;4307;53.868;11.680;2023-06-22T14:54:01;3.03;;;2.73;;
8538;SDS011;4307;53.868;11.680;2023-06-22T14:56:28;5.30;;;3.27;;
8538;SDS011;4307;53.868;11.680;2023-06-22T14:58:55;3.77;;;3.20;;
8538;SDS011;4307;53.868;11.680;2023-06-22T15:01:23;3.37;;;3.07;;
8538;SDS011;4307;53.868;11.680;2023-06-22T15:03:50;3.57;;;3.10;;
8538;SDS011;4307;53.868;11.680;2023-06-22T15:06:16;3.40;;;3.00;;